sensor_id;sensor_type;location;lat;lon;timestamp;P1;durP1;ratioP1;P2;durP2;ratioP2
59880;SDS011;45751;51.380;10.326;2023-11-19T00:00:46;4.43;;;1.48;;
59880;SDS011;45751;51.380;10.326;2023-11-19T00:03:12;3.60;;;1.27;;
59880;SDS011;45751;51.380;10.326;2023-11-19T00:05:38;3.03;;;1.00;;
59880;SDS011;45751;51.380;10.326;2023-11-19T00:08:04;4.82;;;1.48;;
59880;SDS011;45751;51.380;10.326;2023-11-19T00:10:31;3.92;;;1.27;;
59880;SDS011;45751;51.380;10.326;2023-11-19T00:12:57;4.78;;;1.35;;
59880;SDS011;45751;51.380;10.326;2023-11-19T00:15:23;3.55;;;1.00;;
59880;SDS011;45751;51.380;10.326;2023-11-19T00:17:49;4.10;;;1.30;;
59880;SDS011;45751;51.380;10.326;2023-11-19T00:20:16;4.05;;;1.10;;
59880;SDS011;45751;51.380;10.326;2023-11-19T00:22:42;4.90;;;1.20;;
59880;SDS011;45751;51.380;10.326;2023-11-19T00:25:09;3.80;;;1.10;;
59880;SDS011;45751;51.380;10.326;2023-11-19T00:27:35;2.47;;;0.90;;
59880;SDS011;45751;51.380;10.326;2023-11-19T00:30:05;3.15;;;0.93;;
59880;SDS011;45751;51.380;10.326;2023-11-19T00:32:32;2.00;;;0.70;;
59880;SDS011;45751;51.380;10.326;2023-11-19T00:34:59;2.30;;;0.80;;
59880;SDS011;45751;51.380;10.326;2023-11-19T00:37:24;3.05;;;0.90;;
59880;SDS011;45751;51.380;10.326;2023-11-19T00:39:50;5.72;;;1.42;;
59880;SDS011;45751;51.380;10.326;2023-11-19T00:42:17;3.72;;;1.25;;
59880;SDS011;45751;51.380;10.326;2023-11-19T00:44:43;3.63;;;0.95;;
59880;SDS011;45751;51.380;10.326;2023-11-19T00:47:08;3.30;;;1.00;;
59880;SDS011;45751;51.380;10.326;2023-11-19T00:49:34;2.97;;;0.90;;
59880;SDS011;45751;51.380;10.326;2023-11-19T00:52:00;3.42;;;1.10;;
59880;SDS011;45751;51.380;10.326;2023-11-19T00:54:27;3.65;;;1.10;;
59880;SDS011;45751;51.380;10.326;2023-11-19T00:56:53;2.95;;;0.90;;
59880;SDS011;45751;51.380;10.326;2023-11-19T00:59:19;2.97;;;0.90;;
59880;SDS011;45751;51.380;10.326;2023-11-19T01:01:45;2.65;;;0.95;;
59880;SDS011;45751;51.380;10.326;2023-11-19T01:04:13;3.10;;;0.90;;
59880;SDS011;45751;51.380;10.326;2023-11-19T01:06:39;2.63;;;0.93;;
59880;SDS011;45751;51.380;10.326;2023-11-19T01:09:05;3.00;;;1.10;;
59880;SDS011;45751;51.380;10.326;2023-11-19T01:11:31;2.35;;;0.80;;
59880;SDS011;45751;51.380;10.326;2023-11-19T01:13:57;1.63;;;0.60;;
59880;SDS011;45751;51.380;10.326;2023-11-19T01:16:22;3.15;;;0.98;;
59880;SDS011;45751;51.380;10.326;2023-11-19T01:18:48;2.42;;;0.80;;
59880;SDS011;45751;51.380;10.326;2023-11-19T01:21:14;2.03;;;0.70;;
59880;SDS011;45751;51.380;10.326;2023-11-19T01:23:41;2.67;;;0.60;;
59880;SDS011;45751;51.380;10.326;2023-11-19T01:26:10;1.83;;;0.60;;
59880;SDS011;45751;51.380;10.326;2023-11-19T01:28:39;2.58;;;0.80;;
59880;SDS011;45751;51.380;10.326;2023-11-19T01:31:08;2.63;;;0.80;;
59880;SDS011;45751;51.380;10.326;2023-11-19T01:33:37;2.60;;;0.70;;
59880;SDS011;45751;51.380;10.326;2023-11-19T01:36:03;2.65;;;0.70;;
59880;SDS011;45751;51.380;10.326;2023-11-19T01:38:29;2.25;;;0.70;;
59880;SDS011;45751;51.380;10.326;2023-11-19T01:40:56;3.72;;;1.00;;
59880;SDS011;45751;51.380;10.326;2023-11-19T01:43:35;2.08;;;0.63;;
59880;SDS011;45751;51.380;10.326;2023-11-19T01:46:02;2.75;;;0.90;;
59880;SDS011;45751;51.380;10.326;2023-11-19T01:48:29;3.45;;;0.95;;
59880;SDS011;45751;51.380;10.326;2023-11-19T01:50:56;2.95;;;0.95;;
59880;SDS011;45751;51.380;10.326;2023-11-19T01:53:22;2.55;;;0.90;;
59880;SDS011;45751;51.380;10.326;2023-11-19T01:55:49;1.90;;;0.70;;
59880;SDS011;45751;51.380;10.326;2023-11-19T01:58:15;4.03;;;1.10;;
59880;SDS011;45751;51.380;10.326;2023-11-19T02:00:42;1.67;;;0.60;;
59880;SDS011;45751;51.380;10.326;2023-11-19T02:03:09;1.85;;;0.63;;
59880;SDS011;45751;51.380;10.326;2023-11-19T02:05:35;3.78;;;1.08;;
59880;SDS011;45751;51.380;10.326;2023-11-19T02:08:02;3.25;;;0.88;;
59880;SDS011;45751;51.380;10.326;2023-11-19T02:10:28;3.08;;;0.93;;
59880;SDS011;45751;51.380;10.326;2023-11-19T02:12:54;2.15;;;0.70;;
59880;SDS011;45751;51.380;10.326;2023-11-19T02:15:20;2.20;;;0.70;;
59880;SDS011;45751;51.380;10.326;2023-11-19T02:17:49;2.95;;;0.85;;
59880;SDS011;45751;51.380;10.326;2023-11-19T02:20:16;2.90;;;0.85;;
59880;SDS011;45751;51.380;10.326;2023-11-19T02:22:45;2.72;;;0.80;;
59880;SDS011;45751;51.380;10.326;2023-11-19T02:25:29;2.95;;;0.88;;
59880;SDS011;45751;51.380;10.326;2023-11-19T02:28:01;1.17;;;0.50;;
59880;SDS011;45751;51.380;10.326;2023-11-19T02:30:28;2.13;;;0.70;;
59880;SDS011;45751;51.380;10.326;2023-11-19T02:32:57;2.95;;;0.95;;
59880;SDS011;45751;51.380;10.326;2023-11-19T02:35:26;2.28;;;0.77;;
59880;SDS011;45751;51.380;10.326;2023-11-19T02:37:52;2.92;;;0.98;;
59880;SDS011;45751;51.380;10.326;2023-11-19T02:40:19;3.05;;;0.88;;
59880;SDS011;45751;51.380;10.326;2023-11-19T02:42:45;3.65;;;1.05;;
59880;SDS011;45751;51.380;10.326;2023-11-19T02:45:10;3.83;;;1.42;;
59880;SDS011;45751;51.380;10.326;2023-11-19T02:47:42;2.95;;;0.95;;
59880;SDS011;45751;51.380;10.326;2023-11-19T02:50:10;4.63;;;1.30;;
59880;SDS011;45751;51.380;10.326;2023-11-19T02:52:43;4.25;;;1.13;;
59880;SDS011;45751;51.380;10.326;2023-11-19T02:55:11;4.32;;;1.17;;
59880;SDS011;45751;51.380;10.326;2023-11-19T02:57:40;2.47;;;0.70;;
59880;SDS011;45751;51.380;10.326;2023-11-19T03:00:17;3.28;;;0.90;;
59880;SDS011;45751;51.380;10.326;2023-11-19T03:02:44;2.47;;;0.80;;
59880;SDS011;45751;51.380;10.326;2023-11-19T03:05:13;2.78;;;0.90;;
59880;SDS011;45751;51.380;10.326;2023-11-19T03:07:40;3.30;;;0.80;;
59880;SDS011;45751;51.380;10.326;2023-11-19T03:10:08;2.88;;;0.93;;
59880;SDS011;45751;51.380;10.326;2023-11-19T03:12:34;2.05;;;0.70;;
59880;SDS011;45751;51.380;10.326;2023-11-19T03:15:00;1.52;;;0.60;;
59880;SDS011;45751;51.380;10.326;2023-11-19T03:17:26;2.85;;;0.80;;
59880;SDS011;45751;51.380;10.326;2023-11-19T03:19:52;3.65;;;0.90;;
59880;SDS011;45751;51.380;10.326;2023-11-19T03:22:18;3.88;;;1.10;;
59880;SDS011;45751;51.380;10.326;2023-11-19T03:24:43;3.08;;;0.80;;
59880;SDS011;45751;51.380;10.326;2023-11-19T03:27:09;2.72;;;0.90;;
59880;SDS011;45751;51.380;10.326;2023-11-19T03:29:35;3.17;;;0.90;;
59880;SDS011;45751;51.380;10.326;2023-11-19T03:32:01;2.97;;;0.75;;
59880;SDS011;45751;51.380;10.326;2023-11-19T03:34:26;3.25;;;0.90;;
59880;SDS011;45751;51.380;10.326;2023-11-19T03:36:52;3.15;;;0.95;;
59880;SDS011;45751;51.380;10.326;2023-11-19T03:39:18;3.90;;;1.23;;
59880;SDS011;45751;51.380;10.326;2023-11-19T03:41:45;2.88;;;0.80;;
59880;SDS011;45751;51.380;10.326;2023-11-19T03:44:12;2.92;;;0.90;;
59880;SDS011;45751;51.380;10.326;2023-11-19T03:46:37;3.17;;;1.02;;
59880;SDS011;45751;51.380;10.326;2023-11-19T03:49:03;4.28;;;1.52;;
59880;SDS011;45751;51.380;10.326;2023-11-19T03:51:32;3.63;;;0.98;;
59880;SDS011;45751;51.380;10.326;2023-11-19T03:53:59;4.00;;;1.10;;
59880;SDS011;45751;51.380;10.326;2023-11-19T03:56:26;4.32;;;1.35;;
59880;SDS011;45751;51.380;10.326;2023-11-19T03:58:52;4.25;;;1.27;;
59880;SDS011;45751;51.380;10.326;2023-11-19T04:01:18;3.60;;;1.00;;
59880;SDS011;45751;51.380;10.326;2023-11-19T04:03:44;2.63;;;0.90;;
59880;SDS011;45751;51.380;10.326;2023-11-19T04:06:10;3.95;;;1.05;;
59880;SDS011;45751;51.380;10.326;2023-11-19T04:08:36;2.83;;;0.80;;
59880;SDS011;45751;51.380;10.326;2023-11-19T04:11:04;2.13;;;0.68;;
59880;SDS011;45751;51.380;10.326;2023-11-19T04:13:30;3.22;;;0.90;;
59880;SDS011;45751;51.380;10.326;2023-11-19T04:15:56;2.25;;;0.80;;
59880;SDS011;45751;51.380;10.326;2023-11-19T04:18:22;2.70;;;0.88;;
59880;SDS011;45751;51.380;10.326;2023-11-19T04:20:48;3.72;;;0.88;;
59880;SDS011;45751;51.380;10.326;2023-11-19T04:23:13;3.55;;;1.13;;
59880;SDS011;45751;51.380;10.326;2023-11-19T04:25:39;4.45;;;0.82;;
59880;SDS011;45751;51.380;10.326;2023-11-19T04:28:04;2.58;;;0.70;;
59880;SDS011;45751;51.380;10.326;2023-11-19T04:30:30;3.42;;;0.95;;
59880;SDS011;45751;51.380;10.326;2023-11-19T04:32:57;3.13;;;0.88;;
59880;SDS011;45751;51.380;10.326;2023-11-19T04:35:22;2.95;;;0.93;;
59880;SDS011;45751;51.380;10.326;2023-11-19T04:37:48;2.60;;;0.70;;
59880;SDS011;45751;51.380;10.326;2023-11-19T04:40:14;3.00;;;0.93;;
59880;SDS011;45751;51.380;10.326;2023-11-19T04:42:40;1.45;;;0.50;;
59880;SDS011;45751;51.380;10.326;2023-11-19T04:45:06;1.80;;;0.60;;
59880;SDS011;45751;51.380;10.326;2023-11-19T04:47:35;2.25;;;0.73;;
59880;SDS011;45751;51.380;10.326;2023-11-19T04:50:01;2.20;;;0.70;;
59880;SDS011;45751;51.380;10.326;2023-11-19T04:52:28;2.40;;;0.80;;
59880;SDS011;45751;51.380;10.326;2023-11-19T04:54:54;3.85;;;0.90;;
59880;SDS011;45751;51.380;10.326;2023-11-19T04:57:19;3.88;;;1.08;;
59880;SDS011;45751;51.380;10.326;2023-11-19T04:59:45;5.88;;;1.23;;
59880;SDS011;45751;51.380;10.326;2023-11-19T05:02:11;2.72;;;0.98;;
59880;SDS011;45751;51.380;10.326;2023-11-19T05:04:36;4.18;;;1.00;;
59880;SDS011;45751;51.380;10.326;2023-11-19T05:07:05;5.22;;;1.35;;
59880;SDS011;45751;51.380;10.326;2023-11-19T05:09:32;5.68;;;1.00;;
59880;SDS011;45751;51.380;10.326;2023-11-19T05:11:57;4.20;;;1.33;;
59880;SDS011;45751;51.380;10.326;2023-11-19T05:14:23;3.45;;;1.00;;
59880;SDS011;45751;51.380;10.326;2023-11-19T05:16:49;5.13;;;1.50;;
59880;SDS011;45751;51.380;10.326;2023-11-19T05:19:15;5.72;;;1.63;;
59880;SDS011;45751;51.380;10.326;2023-11-19T05:21:43;3.88;;;1.30;;
59880;SDS011;45751;51.380;10.326;2023-11-19T05:24:09;4.50;;;1.23;;
59880;SDS011;45751;51.380;10.326;2023-11-19T05:26:36;4.72;;;1.48;;
59880;SDS011;45751;51.380;10.326;2023-11-19T05:29:02;4.32;;;1.35;;
59880;SDS011;45751;51.380;10.326;2023-11-19T05:31:29;4.82;;;1.58;;
59880;SDS011;45751;51.380;10.326;2023-11-19T05:33:55;4.93;;;1.50;;
59880;SDS011;45751;51.380;10.326;2023-11-19T05:36:21;4.60;;;1.52;;
59880;SDS011;45751;51.380;10.326;2023-11-19T05:38:46;5.30;;;1.88;;
59880;SDS011;45751;51.380;10.326;2023-11-19T05:41:12;5.13;;;1.40;;
59880;SDS011;45751;51.380;10.326;2023-11-19T05:43:38;5.35;;;1.60;;
59880;SDS011;45751;51.380;10.326;2023-11-19T05:46:05;6.28;;;1.88;;
59880;SDS011;45751;51.380;10.326;2023-11-19T05:48:31;5.50;;;1.42;;
59880;SDS011;45751;51.380;10.326;2023-11-19T05:50:58;4.47;;;1.50;;
59880;SDS011;45751;51.380;10.326;2023-11-19T05:53:24;4.93;;;1.50;;
59880;SDS011;45751;51.380;10.326;2023-11-19T05:55:49;4.13;;;1.27;;
59880;SDS011;45751;51.380;10.326;2023-11-19T05:58:27;5.70;;;1.60;;
59880;SDS011;45751;51.380;10.326;2023-11-19T06:00:56;3.97;;;1.13;;
59880;SDS011;45751;51.380;10.326;2023-11-19T06:03:22;3.28;;;1.17;;
59880;SDS011;45751;51.380;10.326;2023-11-19T06:05:48;6.85;;;1.45;;
59880;SDS011;45751;51.380;10.326;2023-11-19T06:08:14;4.68;;;1.63;;
59880;SDS011;45751;51.380;10.326;2023-11-19T06:10:40;5.15;;;1.45;;
59880;SDS011;45751;51.380;10.326;2023-11-19T06:13:07;4.97;;;1.40;;
59880;SDS011;45751;51.380;10.326;2023-11-19T06:15:35;5.30;;;1.88;;
59880;SDS011;45751;51.380;10.326;2023-11-19T06:18:01;5.20;;;1.70;;
59880;SDS011;45751;51.380;10.326;2023-11-19T06:20:32;5.40;;;1.85;;
59880;SDS011;45751;51.380;10.326;2023-11-19T06:22:58;5.80;;;1.87;;
59880;SDS011;45751;51.380;10.326;2023-11-19T06:25:25;6.07;;;1.45;;
59880;SDS011;45751;51.380;10.326;2023-11-19T06:27:51;5.85;;;1.67;;
59880;SDS011;45751;51.380;10.326;2023-11-19T06:30:17;5.38;;;1.42;;
59880;SDS011;45751;51.380;10.326;2023-11-19T06:32:44;5.55;;;1.95;;
59880;SDS011;45751;51.380;10.326;2023-11-19T06:35:09;6.55;;;1.70;;
59880;SDS011;45751;51.380;10.326;2023-11-19T06:37:36;7.05;;;1.85;;
59880;SDS011;45751;51.380;10.326;2023-11-19T06:40:04;5.88;;;1.80;;
59880;SDS011;45751;51.380;10.326;2023-11-19T06:42:30;6.15;;;1.95;;
59880;SDS011;45751;51.380;10.326;2023-11-19T06:44:56;5.80;;;1.50;;
59880;SDS011;45751;51.380;10.326;2023-11-19T06:47:25;4.63;;;1.80;;
59880;SDS011;45751;51.380;10.326;2023-11-19T06:49:52;5.10;;;1.30;;
59880;SDS011;45751;51.380;10.326;2023-11-19T06:52:18;7.70;;;1.65;;
59880;SDS011;45751;51.380;10.326;2023-11-19T06:54:44;5.35;;;1.70;;
59880;SDS011;45751;51.380;10.326;2023-11-19T06:57:13;6.05;;;1.65;;
59880;SDS011;45751;51.380;10.326;2023-11-19T06:59:39;8.02;;;1.70;;
59880;SDS011;45751;51.380;10.326;2023-11-19T07:02:05;5.50;;;1.63;;
59880;SDS011;45751;51.380;10.326;2023-11-19T07:04:31;4.80;;;1.60;;
59880;SDS011;45751;51.380;10.326;2023-11-19T07:06:58;4.72;;;1.40;;
59880;SDS011;45751;51.380;10.326;2023-11-19T07:09:25;8.25;;;2.00;;
59880;SDS011;45751;51.380;10.326;2023-11-19T07:11:51;6.65;;;2.20;;
59880;SDS011;45751;51.380;10.326;2023-11-19T07:14:17;9.20;;;1.80;;
59880;SDS011;45751;51.380;10.326;2023-11-19T07:16:43;5.47;;;1.67;;
59880;SDS011;45751;51.380;10.326;2023-11-19T07:19:11;5.95;;;1.98;;
59880;SDS011;45751;51.380;10.326;2023-11-19T07:21:39;4.93;;;1.42;;
59880;SDS011;45751;51.380;10.326;2023-11-19T07:24:09;4.32;;;1.30;;
59880;SDS011;45751;51.380;10.326;2023-11-19T07:26:40;9.45;;;1.95;;
59880;SDS011;45751;51.380;10.326;2023-11-19T07:29:08;6.18;;;1.60;;
59880;SDS011;45751;51.380;10.326;2023-11-19T07:31:33;5.85;;;1.70;;
59880;SDS011;45751;51.380;10.326;2023-11-19T07:33:59;6.50;;;1.40;;
59880;SDS011;45751;51.380;10.326;2023-11-19T07:36:25;5.25;;;1.60;;
59880;SDS011;45751;51.380;10.326;2023-11-19T07:38:50;4.93;;;1.35;;
59880;SDS011;45751;51.380;10.326;2023-11-19T07:41:16;4.38;;;1.42;;
59880;SDS011;45751;51.380;10.326;2023-11-19T07:43:45;4.97;;;1.60;;
59880;SDS011;45751;51.380;10.326;2023-11-19T07:46:11;5.82;;;1.52;;
59880;SDS011;45751;51.380;10.326;2023-11-19T07:48:38;11.32;;;1.70;;
59880;SDS011;45751;51.380;10.326;2023-11-19T07:51:05;4.32;;;1.25;;
59880;SDS011;45751;51.380;10.326;2023-11-19T07:53:30;5.93;;;1.30;;
59880;SDS011;45751;51.380;10.326;2023-11-19T07:55:57;5.60;;;1.65;;
59880;SDS011;45751;51.380;10.326;2023-11-19T07:58:25;5.10;;;1.42;;
59880;SDS011;45751;51.380;10.326;2023-11-19T08:00:51;6.25;;;1.70;;
59880;SDS011;45751;51.380;10.326;2023-11-19T08:03:17;7.75;;;1.67;;
59880;SDS011;45751;51.380;10.326;2023-11-19T08:05:44;5.80;;;1.52;;
59880;SDS011;45751;51.380;10.326;2023-11-19T08:08:11;5.57;;;1.42;;
59880;SDS011;45751;51.380;10.326;2023-11-19T08:10:37;5.80;;;1.50;;
59880;SDS011;45751;51.380;10.326;2023-11-19T08:13:03;7.30;;;1.40;;
59880;SDS011;45751;51.380;10.326;2023-11-19T08:15:29;5.82;;;1.50;;
59880;SDS011;45751;51.380;10.326;2023-11-19T08:17:55;7.30;;;1.65;;
59880;SDS011;45751;51.380;10.326;2023-11-19T08:20:21;5.72;;;1.48;;
59880;SDS011;45751;51.380;10.326;2023-11-19T08:22:47;7.13;;;1.85;;
59880;SDS011;45751;51.380;10.326;2023-11-19T08:25:13;4.40;;;1.40;;
59880;SDS011;45751;51.380;10.326;2023-11-19T08:27:39;4.75;;;1.42;;
59880;SDS011;45751;51.380;10.326;2023-11-19T08:30:05;7.38;;;1.80;;
59880;SDS011;45751;51.380;10.326;2023-11-19T08:32:31;6.35;;;1.52;;
59880;SDS011;45751;51.380;10.326;2023-11-19T08:34:57;6.43;;;1.65;;
59880;SDS011;45751;51.380;10.326;2023-11-19T08:37:23;4.78;;;1.30;;
59880;SDS011;45751;51.380;10.326;2023-11-19T08:39:49;6.25;;;1.75;;
59880;SDS011;45751;51.380;10.326;2023-11-19T08:42:18;8.88;;;1.65;;
59880;SDS011;45751;51.380;10.326;2023-11-19T08:44:44;6.95;;;1.60;;
59880;SDS011;45751;51.380;10.326;2023-11-19T08:47:15;8.57;;;1.60;;
59880;SDS011;45751;51.380;10.326;2023-11-19T08:49:44;6.03;;;1.65;;
59880;SDS011;45751;51.380;10.326;2023-11-19T08:52:10;6.05;;;1.55;;
59880;SDS011;45751;51.380;10.326;2023-11-19T08:54:36;10.10;;;2.28;;
59880;SDS011;45751;51.380;10.326;2023-11-19T08:57:02;8.27;;;1.83;;
59880;SDS011;45751;51.380;10.326;2023-11-19T08:59:29;6.38;;;1.77;;
59880;SDS011;45751;51.380;10.326;2023-11-19T09:01:55;7.30;;;1.73;;
59880;SDS011;45751;51.380;10.326;2023-11-19T09:04:20;5.97;;;1.70;;
59880;SDS011;45751;51.380;10.326;2023-11-19T09:06:48;7.88;;;1.67;;
59880;SDS011;45751;51.380;10.326;2023-11-19T09:09:14;9.50;;;2.20;;
59880;SDS011;45751;51.380;10.326;2023-11-19T09:11:39;8.35;;;2.03;;
59880;SDS011;45751;51.380;10.326;2023-11-19T09:14:05;5.75;;;1.75;;
59880;SDS011;45751;51.380;10.326;2023-11-19T09:16:31;10.20;;;1.55;;
59880;SDS011;45751;51.380;10.326;2023-11-19T09:18:57;5.43;;;1.67;;
59880;SDS011;45751;51.380;10.326;2023-11-19T09:21:25;7.35;;;1.88;;
59880;SDS011;45751;51.380;10.326;2023-11-19T09:23:51;12.63;;;1.92;;
59880;SDS011;45751;51.380;10.326;2023-11-19T09:26:18;9.95;;;1.75;;
59880;SDS011;45751;51.380;10.326;2023-11-19T09:28:43;9.88;;;2.08;;
59880;SDS011;45751;51.380;10.326;2023-11-19T09:31:13;6.90;;;1.95;;
59880;SDS011;45751;51.380;10.326;2023-11-19T09:33:39;8.73;;;1.85;;
59880;SDS011;45751;51.380;10.326;2023-11-19T09:36:05;7.07;;;1.70;;
59880;SDS011;45751;51.380;10.326;2023-11-19T09:38:31;6.40;;;1.52;;
59880;SDS011;45751;51.380;10.326;2023-11-19T09:40:58;10.30;;;1.63;;
59880;SDS011;45751;51.380;10.326;2023-11-19T09:43:24;15.82;;;2.72;;
59880;SDS011;45751;51.380;10.326;2023-11-19T09:45:53;8.88;;;1.75;;
59880;SDS011;45751;51.380;10.326;2023-11-19T09:48:21;7.97;;;1.80;;
59880;SDS011;45751;51.380;10.326;2023-11-19T09:50:49;7.28;;;1.45;;
59880;SDS011;45751;51.380;10.326;2023-11-19T09:53:16;11.70;;;1.90;;
59880;SDS011;45751;51.380;10.326;2023-11-19T09:55:43;9.18;;;2.25;;
59880;SDS011;45751;51.380;10.326;2023-11-19T09:58:09;11.65;;;1.67;;
59880;SDS011;45751;51.380;10.326;2023-11-19T10:00:37;7.35;;;1.85;;
59880;SDS011;45751;51.380;10.326;2023-11-19T10:03:03;9.70;;;1.63;;
59880;SDS011;45751;51.380;10.326;2023-11-19T10:05:31;14.32;;;2.00;;
59880;SDS011;45751;51.380;10.326;2023-11-19T10:07:57;11.85;;;1.90;;
59880;SDS011;45751;51.380;10.326;2023-11-19T10:10:23;14.45;;;2.25;;
59880;SDS011;45751;51.380;10.326;2023-11-19T10:12:52;9.15;;;2.28;;
59880;SDS011;45751;51.380;10.326;2023-11-19T10:15:21;12.07;;;1.42;;
59880;SDS011;45751;51.380;10.326;2023-11-19T10:17:49;9.23;;;1.73;;
59880;SDS011;45751;51.380;10.326;2023-11-19T10:20:15;14.00;;;1.77;;
59880;SDS011;45751;51.380;10.326;2023-11-19T10:22:41;9.88;;;1.63;;
59880;SDS011;45751;51.380;10.326;2023-11-19T10:25:23;10.20;;;2.13;;
59880;SDS011;45751;51.380;10.326;2023-11-19T10:27:53;10.73;;;2.08;;
59880;SDS011;45751;51.380;10.326;2023-11-19T10:30:22;10.90;;;1.55;;
59880;SDS011;45751;51.380;10.326;2023-11-19T10:38:23;10.85;;;1.92;;
59880;SDS011;45751;51.380;10.326;2023-11-19T10:40:50;14.07;;;2.05;;
59880;SDS011;45751;51.380;10.326;2023-11-19T10:43:17;6.07;;;1.48;;
59880;SDS011;45751;51.380;10.326;2023-11-19T10:45:44;9.57;;;2.33;;
59880;SDS011;45751;51.380;10.326;2023-11-19T10:48:09;6.82;;;1.52;;
59880;SDS011;45751;51.380;10.326;2023-11-19T10:50:36;15.88;;;2.28;;
59880;SDS011;45751;51.380;10.326;2023-11-19T10:53:03;10.57;;;2.13;;
59880;SDS011;45751;51.380;10.326;2023-11-19T10:55:30;12.10;;;1.58;;
59880;SDS011;45751;51.380;10.326;2023-11-19T10:58:01;14.02;;;1.65;;
59880;SDS011;45751;51.380;10.326;2023-11-19T11:00:29;14.25;;;1.60;;
59880;SDS011;45751;51.380;10.326;2023-11-19T11:03:01;9.13;;;1.58;;
59880;SDS011;45751;51.380;10.326;2023-11-19T11:05:32;8.80;;;1.45;;
59880;SDS011;45751;51.380;10.326;2023-11-19T11:08:00;5.87;;;1.37;;
59880;SDS011;45751;51.380;10.326;2023-11-19T11:10:27;11.75;;;1.60;;
59880;SDS011;45751;51.380;10.326;2023-11-19T11:12:59;6.78;;;1.17;;
59880;SDS011;45751;51.380;10.326;2023-11-19T11:15:27;6.78;;;1.40;;
59880;SDS011;45751;51.380;10.326;2023-11-19T11:17:57;11.95;;;1.25;;
59880;SDS011;45751;51.380;10.326;2023-11-19T11:20:28;7.32;;;1.35;;
59880;SDS011;45751;51.380;10.326;2023-11-19T11:28:21;7.20;;;1.50;;
59880;SDS011;45751;51.380;10.326;2023-11-19T11:31:03;12.35;;;1.50;;
59880;SDS011;45751;51.380;10.326;2023-11-19T11:36:57;11.90;;;1.70;;
59880;SDS011;45751;51.380;10.326;2023-11-19T11:39:26;7.75;;;1.67;;
59880;SDS011;45751;51.380;10.326;2023-11-19T11:42:39;8.23;;;1.38;;
59880;SDS011;45751;51.380;10.326;2023-11-19T11:44:58;13.70;;;3.22;;
59880;SDS011;45751;51.380;10.326;2023-11-19T11:50:07;10.55;;;2.28;;
59880;SDS011;45751;51.380;10.326;2023-11-19T11:52:34;8.32;;;1.77;;
59880;SDS011;45751;51.380;10.326;2023-11-19T11:55:33;9.18;;;2.15;;
59880;SDS011;45751;51.380;10.326;2023-11-19T11:58:02;15.30;;;1.90;;
59880;SDS011;45751;51.380;10.326;2023-11-19T12:03:02;10.88;;;1.73;;
59880;SDS011;45751;51.380;10.326;2023-11-19T12:05:29;13.80;;;1.55;;
59880;SDS011;45751;51.380;10.326;2023-11-19T12:10:24;11.98;;;2.25;;
59880;SDS011;45751;51.380;10.326;2023-11-19T12:12:53;11.82;;;2.35;;
59880;SDS011;45751;51.380;10.326;2023-11-19T12:15:18;9.30;;;1.48;;
59880;SDS011;45751;51.380;10.326;2023-11-19T12:17:50;7.50;;;1.70;;
59880;SDS011;45751;51.380;10.326;2023-11-19T12:20:17;9.45;;;1.70;;
59880;SDS011;45751;51.380;10.326;2023-11-19T12:22:44;6.60;;;1.52;;
59880;SDS011;45751;51.380;10.326;2023-11-19T12:25:11;12.20;;;1.55;;
59880;SDS011;45751;51.380;10.326;2023-11-19T12:27:41;11.05;;;1.88;;
59880;SDS011;45751;51.380;10.326;2023-11-19T12:30:11;8.70;;;1.38;;
59880;SDS011;45751;51.380;10.326;2023-11-19T12:32:42;12.55;;;1.85;;
59880;SDS011;45751;51.380;10.326;2023-11-19T12:35:09;11.80;;;1.70;;
59880;SDS011;45751;51.380;10.326;2023-11-19T12:37:41;12.20;;;1.48;;
59880;SDS011;45751;51.380;10.326;2023-11-19T12:40:12;9.60;;;1.77;;
59880;SDS011;45751;51.380;10.326;2023-11-19T12:42:42;12.50;;;1.75;;
59880;SDS011;45751;51.380;10.326;2023-11-19T12:45:09;9.90;;;1.58;;
59880;SDS011;45751;51.380;10.326;2023-11-19T12:47:38;5.78;;;1.35;;
59880;SDS011;45751;51.380;10.326;2023-11-19T12:50:07;8.65;;;1.73;;
59880;SDS011;45751;51.380;10.326;2023-11-19T12:52:37;6.78;;;1.48;;
59880;SDS011;45751;51.380;10.326;2023-11-19T12:55:03;18.38;;;4.10;;
59880;SDS011;45751;51.380;10.326;2023-11-19T12:57:41;11.30;;;1.98;;
59880;SDS011;45751;51.380;10.326;2023-11-19T13:00:18;7.00;;;1.73;;
59880;SDS011;45751;51.380;10.326;2023-11-19T13:02:49;17.10;;;2.60;;
59880;SDS011;45751;51.380;10.326;2023-11-19T13:05:26;9.23;;;1.50;;
59880;SDS011;45751;51.380;10.326;2023-11-19T13:08:00;9.60;;;1.75;;
59880;SDS011;45751;51.380;10.326;2023-11-19T13:10:30;11.27;;;2.13;;
59880;SDS011;45751;51.380;10.326;2023-11-19T13:15:31;7.68;;;1.33;;
59880;SDS011;45751;51.380;10.326;2023-11-19T13:17:58;14.18;;;1.70;;
59880;SDS011;45751;51.380;10.326;2023-11-19T13:20:24;9.48;;;1.38;;
59880;SDS011;45751;51.380;10.326;2023-11-19T13:22:56;9.20;;;1.83;;
59880;SDS011;45751;51.380;10.326;2023-11-19T13:25:26;10.40;;;1.50;;
59880;SDS011;45751;51.380;10.326;2023-11-19T13:27:52;7.97;;;1.88;;
59880;SDS011;45751;51.380;10.326;2023-11-19T13:30:19;8.13;;;1.40;;
59880;SDS011;45751;51.380;10.326;2023-11-19T13:32:45;13.70;;;1.40;;
59880;SDS011;45751;51.380;10.326;2023-11-19T13:35:12;7.18;;;1.65;;
59880;SDS011;45751;51.380;10.326;2023-11-19T13:37:38;12.20;;;1.80;;
59880;SDS011;45751;51.380;10.326;2023-11-19T13:40:06;10.05;;;2.20;;
59880;SDS011;45751;51.380;10.326;2023-11-19T13:42:32;9.20;;;1.60;;
59880;SDS011;45751;51.380;10.326;2023-11-19T13:44:58;8.90;;;1.40;;
59880;SDS011;45751;51.380;10.326;2023-11-19T13:47:23;11.40;;;1.98;;
59880;SDS011;45751;51.380;10.326;2023-11-19T13:49:49;9.50;;;1.67;;
59880;SDS011;45751;51.380;10.326;2023-11-19T13:52:15;9.63;;;1.58;;
59880;SDS011;45751;51.380;10.326;2023-11-19T13:54:41;11.55;;;1.77;;
59880;SDS011;45751;51.380;10.326;2023-11-19T13:57:06;12.02;;;1.60;;
59880;SDS011;45751;51.380;10.326;2023-11-19T13:59:32;11.73;;;1.92;;
59880;SDS011;45751;51.380;10.326;2023-11-19T14:01:58;15.35;;;4.60;;
59880;SDS011;45751;51.380;10.326;2023-11-19T14:04:24;7.97;;;1.77;;
59880;SDS011;45751;51.380;10.326;2023-11-19T14:06:50;11.77;;;2.00;;
59880;SDS011;45751;51.380;10.326;2023-11-19T14:09:16;7.07;;;1.50;;
59880;SDS011;45751;51.380;10.326;2023-11-19T14:11:42;8.52;;;1.77;;
59880;SDS011;45751;51.380;10.326;2023-11-19T14:14:08;9.45;;;1.75;;
59880;SDS011;45751;51.380;10.326;2023-11-19T14:16:34;10.07;;;1.63;;
59880;SDS011;45751;51.380;10.326;2023-11-19T14:19:00;9.98;;;1.45;;
59880;SDS011;45751;51.380;10.326;2023-11-19T14:21:26;10.57;;;1.88;;
59880;SDS011;45751;51.380;10.326;2023-11-19T14:23:52;10.23;;;1.85;;
59880;SDS011;45751;51.380;10.326;2023-11-19T14:26:18;7.88;;;2.10;;
59880;SDS011;45751;51.380;10.326;2023-11-19T14:28:44;7.82;;;2.05;;
59880;SDS011;45751;51.380;10.326;2023-11-19T14:31:09;7.63;;;1.40;;
59880;SDS011;45751;51.380;10.326;2023-11-19T14:33:35;8.65;;;1.23;;
59880;SDS011;45751;51.380;10.326;2023-11-19T14:36:03;6.05;;;1.05;;
59880;SDS011;45751;51.380;10.326;2023-11-19T14:38:29;9.35;;;2.33;;
59880;SDS011;45751;51.380;10.326;2023-11-19T14:40:55;5.75;;;1.30;;
59880;SDS011;45751;51.380;10.326;2023-11-19T14:43:21;12.68;;;1.73;;
59880;SDS011;45751;51.380;10.326;2023-11-19T14:45:47;8.43;;;1.45;;
59880;SDS011;45751;51.380;10.326;2023-11-19T14:48:13;9.10;;;1.40;;
59880;SDS011;45751;51.380;10.326;2023-11-19T14:50:39;7.70;;;1.20;;
59880;SDS011;45751;51.380;10.326;2023-11-19T14:53:04;7.38;;;1.55;;
59880;SDS011;45751;51.380;10.326;2023-11-19T14:55:30;9.20;;;1.58;;
59880;SDS011;45751;51.380;10.326;2023-11-19T14:57:57;8.48;;;1.58;;